Time;durP1;ratioP1;P1;durP2;ratioP2;P2;SDS_P1;SDS_P2;PMS_P1;PMS_P2;Temp;Humidity;BMP_temperature;BMP_pressure;BME280_temperature;BME280_humidity;BME280_pressure;Samples;Min_cycle;Max_cycle;Signal;HPM_P1;HPM_P2
2021/05/27 00:01:09;;;;;;;0.10;0.10;;;13.70;94.70;;;;;;5029358;28;20090;-80
2021/05/27 00:03:34;;;;;;;0.10;0.10;;;13.70;94.50;;;;;;5029843;28;20034;-80
2021/05/27 00:06:00;;;;;;;0.90;0.90;;;13.70;94.30;;;;;;5030311;28;20065;-81
2021/05/27 00:08:25;;;;;;;0.10;0.10;;;13.60;94.50;;;;;;5025647;28;20028;-79
2021/05/27 00:10:51;;;;;;;0.10;0.10;;;13.60;94.40;;;;;;5030522;28;20547;-79
2021/05/27 00:13:17;;;;;;;0.00;0.00;;;13.60;94.50;;;;;;5029844;28;20577;-80
2021/05/27 00:15:43;;;;;;;0.10;0.10;;;13.60;94.40;;;;;;5030241;28;20048;-82
2021/05/27 00:18:09;;;;;;;0.10;0.10;;;13.60;94.10;;;;;;5029499;28;20880;-80
2021/05/27 00:20:35;;;;;;;0.10;0.10;;;13.50;94.40;;;;;;5030209;28;20021;-80
2021/05/27 00:23:01;;;;;;;0.10;0.10;;;13.50;94.50;;;;;;5042431;28;20025;-80
2021/05/27 00:25:26;;;;;;;0.10;0.10;;;13.50;94.20;;;;;;5028803;28;20113;-80
2021/05/27 00:27:53;;;;;;;0.10;0.10;;;13.50;94.30;;;;;;5029618;28;20099;-80
2021/05/27 00:30:19;;;;;;;0.10;0.10;;;13.50;94.40;;;;;;5015818;28;20520;-80
2021/05/27 00:32:45;;;;;;;0.10;0.10;;;13.40;94.30;;;;;;5028643;28;20087;-80
2021/05/27 00:35:12;;;;;;;0.10;0.10;;;13.40;94.00;;;;;;5027511;28;20025;-81
2021/05/27 00:37:38;;;;;;;0.10;0.10;;;13.40;94.50;;;;;;5026985;28;20083;-80
2021/05/27 00:40:07;;;;;;;0.10;0.10;;;13.40;93.60;;;;;;5029467;28;20075;-80
2021/05/27 00:42:33;;;;;;;0.10;0.10;;;13.40;93.80;;;;;;5029076;28;20029;-80
2021/05/27 00:45:10;;;;;;;0.10;0.10;;;13.40;94.00;;;;;;5025485;28;20048;-79
2021/05/27 00:47:36;;;;;;;0.10;0.10;;;13.40;93.80;;;;;;5016685;28;20034;-79
2021/05/27 00:50:04;;;;;;;0.20;0.20;;;13.40;93.80;;;;;;5029186;28;20034;-80
2021/05/27 00:52:31;;;;;;;0.10;0.10;;;13.40;94.10;;;;;;5041674;28;20097;-80
2021/05/27 00:54:58;;;;;;;;;;;13.40;93.90;;;;;;5028766;28;20515;-80
2021/05/27 00:57:35;;;;;;;0.10;0.10;;;13.40;94.00;;;;;;5029125;28;19908;-79
2021/05/27 01:00:05;;;;;;;0.10;0.10;;;13.30;93.50;;;;;;5029146;28;20511;-80
2021/05/27 01:02:31;;;;;;;0.10;0.10;;;13.40;93.50;;;;;;5028865;28;20104;-80
2021/05/27 01:04:56;;;;;;;0.10;0.10;;;13.30;93.50;;;;;;5029262;28;20115;-79
2021/05/27 01:07:23;;;;;;;0.10;0.10;;;13.30;93.60;;;;;;5028944;28;20060;-79
2021/05/27 01:09:50;;;;;;;0.10;0.10;;;13.30;93.60;;;;;;5029037;28;20029;-79
2021/05/27 01:12:15;;;;;;;0.10;0.10;;;13.30;93.80;;;;;;5029148;28;20037;-80
2021/05/27 01:17:25;;;;;;;0.10;0.10;;;13.30;93.50;;;;;;5028766;28;20110;-81
2021/05/27 01:19:52;;;;;;;0.10;0.10;;;13.30;93.90;;;;;;5027463;28;20496;-80
2021/05/27 01:22:22;;;;;;;0.10;0.10;;;13.30;93.70;;;;;;5041349;28;20107;-80
2021/05/27 01:24:49;;;;;;;0.10;0.10;;;13.30;93.70;;;;;;5028804;28;20049;-79
2021/05/27 01:27:15;;;;;;;0.10;0.10;;;13.30;93.60;;;;;;5028895;28;20565;-79
2021/05/27 01:29:42;;;;;;;0.10;0.10;;;13.30;93.50;;;;;;5028222;28;20029;-80
2021/05/27 01:32:10;;;;;;;0.10;0.10;;;13.30;93.70;;;;;;5027457;28;20099;-80
2021/05/27 01:34:36;;;;;;;0.10;0.10;;;13.20;93.60;;;;;;5028217;28;20048;-79
2021/05/27 01:37:03;;;;;;;0.10;0.10;;;13.10;93.60;;;;;;5028635;28;20476;-80
2021/05/27 01:39:28;;;;;;;0.10;0.10;;;13.20;93.70;;;;;;5015303;28;20662;-80
2021/05/27 01:41:54;;;;;;;0.10;0.10;;;13.10;93.60;;;;;;5008850;28;20034;-79
2021/05/27 01:44:20;;;;;;;0.10;0.10;;;13.10;93.60;;;;;;5024426;28;20029;-79
2021/05/27 01:46:46;;;;;;;0.10;0.10;;;13.10;93.60;;;;;;5028543;28;20136;-79
2021/05/27 01:49:11;;;;;;;0.10;0.10;;;13.10;93.70;;;;;;5027843;28;20484;-80
2021/05/27 01:51:37;;;;;;;0.10;0.10;;;13.10;93.40;;;;;;5034905;28;20029;-79
2021/05/27 01:54:04;;;;;;;0.10;0.10;;;13.10;93.50;;;;;;5032490;28;20037;-79
2021/05/27 01:56:30;;;;;;;0.10;0.10;;;13.10;93.90;;;;;;5028466;28;20034;-80
2021/05/27 01:59:04;;;;;;;0.10;0.10;;;13.10;93.70;;;;;;5019194;28;20583;-79
2021/05/27 02:01:30;;;;;;;0.10;0.10;;;13.00;93.90;;;;;;5024798;28;20818;-80
2021/05/27 02:03:55;;;;;;;0.10;0.10;;;13.00;94.00;;;;;;5027724;28;20057;-79
2021/05/27 02:06:21;;;;;;;0.10;0.10;;;13.00;93.90;;;;;;5027466;28;20033;-78
2021/05/27 02:11:31;;;;;;;0.10;0.10;;;13.00;94.30;;;;;;5028188;28;20463;-79
2021/05/27 02:13:57;;;;;;;0.10;0.10;;;13.00;94.10;;;;;;5027450;28;20061;-79
2021/05/27 02:16:23;;;;;;;0.13;0.13;;;13.00;94.30;;;;;;5028084;28;20625;-79
2021/05/27 02:18:49;;;;;;;0.10;0.10;;;13.00;93.80;;;;;;5027411;28;20060;-79
2021/05/27 02:21:15;;;;;;;0.10;0.10;;;13.00;94.00;;;;;;5031604;28;20053;-80
2021/05/27 02:23:40;;;;;;;0.10;0.10;;;12.90;94.20;;;;;;5036381;28;20403;-79
2021/05/27 02:26:06;;;;;;;5.05;4.75;;;13.00;94.10;;;;;;5026484;28;20029;-79
2021/05/27 02:28:32;;;;;;;0.10;0.10;;;12.90;94.30;;;;;;5027256;28;20103;-80
2021/05/27 02:30:57;;;;;;;0.10;0.10;;;12.90;94.30;;;;;;5026594;28;20033;-80
2021/05/27 02:33:23;;;;;;;0.10;0.10;;;12.90;94.70;;;;;;5027446;28;20133;-80
2021/05/27 02:35:49;;;;;;;0.10;0.10;;;12.80;94.60;;;;;;5027759;28;20095;-81
2021/05/27 02:38:15;;;;;;;0.10;0.10;;;12.90;94.30;;;;;;5027288;28;20075;-81
2021/05/27 02:40:40;;;;;;;0.10;0.10;;;12.90;94.20;;;;;;5027958;28;20302;-81
2021/05/27 02:43:06;;;;;;;0.10;0.10;;;12.90;94.20;;;;;;5023249;28;20025;-81
2021/05/27 02:45:32;;;;;;;0.10;0.10;;;12.90;94.20;;;;;;5017373;28;20033;-81
2021/05/27 02:47:58;;;;;;;0.10;0.10;;;12.90;94.10;;;;;;5025619;28;20029;-80
2021/05/27 02:50:23;;;;;;;0.10;0.10;;;12.90;94.20;;;;;;5027615;28;20033;-81
2021/05/27 02:52:49;;;;;;;0.00;0.00;;;12.90;94.50;;;;;;5026873;28;20069;-80
2021/05/27 02:55:15;;;;;;;0.10;0.10;;;12.90;94.30;;;;;;5027784;28;20121;-81
2021/05/27 02:57:40;;;;;;;0.10;0.10;;;12.90;93.80;;;;;;5027206;28;20040;-81
2021/05/27 03:00:07;;;;;;;0.10;0.10;;;12.90;95.00;;;;;;5025958;28;20455;-81
2021/05/27 03:02:33;;;;;;;0.15;0.15;;;12.90;95.90;;;;;;5027292;28;20038;-81
2021/05/27 03:04:58;;;;;;;0.10;0.10;;;12.90;95.90;;;;;;5027423;28;20033;-82
2021/05/27 03:07:24;;;;;;;0.10;0.10;;;12.90;95.90;;;;;;5027312;28;20029;-81
2021/05/27 03:09:50;;;;;;;1.38;0.95;;;12.80;95.90;;;;;;5015022;28;20026;-83
2021/05/27 03:12:16;;;;;;;0.08;0.08;;;12.90;95.90;;;;;;5027663;28;20033;-83
2021/05/27 03:14:42;;;;;;;0.10;0.10;;;12.90;96.80;;;;;;5027201;28;20033;-82
2021/05/27 03:17:07;;;;;;;0.10;0.10;;;12.90;96.20;;;;;;5026245;28;20068;-85
2021/05/27 03:19:33;;;;;;;0.40;0.40;;;12.90;96.30;;;;;;5029543;28;20029;-84
2021/05/27 03:21:59;;;;;;;0.10;0.10;;;12.90;96.20;;;;;;5041343;28;20025;-85
2021/05/27 03:24:24;;;;;;;0.10;0.10;;;13.00;95.80;;;;;;5032670;28;20036;-84
2021/05/27 03:26:52;;;;;;;0.10;0.10;;;13.00;96.20;;;;;;5031400;28;20030;-84
2021/05/27 03:29:20;;;;;;;;;;;13.10;96.20;;;;;;5031110;28;20256;-83
2021/05/27 03:31:46;;;;;;;0.10;0.10;;;13.10;95.80;;;;;;5028793;28;19920;-84
2021/05/27 03:34:12;;;;;;;0.10;0.10;;;13.10;95.40;;;;;;5030578;28;20034;-83
2021/05/27 03:36:37;;;;;;;0.10;0.10;;;13.10;95.60;;;;;;5030976;28;20030;-84
2021/05/27 03:39:05;;;;;;;0.10;0.10;;;13.10;95.50;;;;;;5030552;28;20621;-84
2021/05/27 03:41:31;;;;;;;0.10;0.10;;;13.10;95.40;;;;;;5031272;28;20028;-83
2021/05/27 03:43:56;;;;;;;0.10;0.10;;;13.20;95.90;;;;;;5030480;28;20029;-83
2021/05/27 03:46:22;;;;;;;0.10;0.10;;;13.20;95.40;;;;;;5029667;28;20047;-83
2021/05/27 03:48:48;;;;;;;0.52;0.52;;;13.20;96.20;;;;;;5030412;28;20483;-83
2021/05/27 03:51:14;;;;;;;0.10;0.10;;;13.30;95.40;;;;;;5034296;28;20033;-84
2021/05/27 03:53:40;;;;;;;28.15;16.27;;;13.30;95.70;;;;;;5039437;28;20037;-83
2021/05/27 03:56:06;;;;;;;0.00;0.00;;;13.40;96.00;;;;;;5030533;28;20044;-83
2021/05/27 04:01:16;;;;;;;0.10;0.10;;;13.50;94.80;;;;;;5026174;28;20048;-81
2021/05/27 04:09:12;;;;;;;0.10;0.10;;;13.60;94.80;;;;;;5021812;28;20055;-83
2021/05/27 04:11:37;;;;;;;0.10;0.10;;;13.70;94.80;;;;;;5022594;28;20681;-83
2021/05/27 04:14:03;;;;;;;0.10;0.10;;;13.80;94.80;;;;;;5026639;28;20056;-83
2021/05/27 04:16:29;;;;;;;0.00;0.00;;;13.70;94.60;;;;;;5022485;28;20380;-83
2021/05/27 04:18:55;;;;;;;0.10;0.10;;;13.70;94.50;;;;;;5020311;28;20026;-83
2021/05/27 04:21:20;;;;;;;0.10;0.10;;;13.80;94.20;;;;;;5021150;28;20022;-84
2021/05/27 04:23:46;;;;;;;0.10;0.10;;;13.80;94.60;;;;;;5026598;28;20022;-82
2021/05/27 04:26:16;;;;;;;0.10;0.10;;;13.80;93.60;;;;;;5020292;28;20087;-84
2021/05/27 04:28:43;;;;;;;0.00;0.00;;;13.80;93.50;;;;;;5021189;28;20464;-83
2021/05/27 04:31:11;;;;;;;;;;;13.90;94.50;;;;;;5022612;28;20056;-83
2021/05/27 04:33:40;;;;;;;0.10;0.10;;;13.90;95.00;;;;;;5028067;28;19921;-83
2021/05/27 04:36:16;;;;;;;0.00;0.00;;;14.00;94.40;;;;;;5022919;28;20112;-82
2021/05/27 04:38:43;;;;;;;0.10;0.10;;;14.00;94.20;;;;;;5028985;28;20152;-83
2021/05/27 04:41:09;;;;;;;;;;;14.00;94.80;;;;;;5016630;28;20030;-81
2021/05/27 04:43:36;;;;;;;0.10;0.10;;;14.10;95.10;;;;;;5027673;28;19916;-80
2021/05/27 04:46:02;;;;;;;0.00;0.00;;;14.20;94.90;;;;;;5022388;28;20014;-78
2021/05/27 04:48:28;;;;;;;0.25;0.25;;;14.30;94.60;;;;;;5027340;28;20079;-80
2021/05/27 04:50:54;;;;;;;0.00;0.00;;;14.30;93.90;;;;;;5018530;28;20030;-80
2021/05/27 04:53:22;;;;;;;0.00;0.00;;;14.40;93.70;;;;;;5028506;28;20522;-79
2021/05/27 04:55:48;;;;;;;0.10;0.10;;;14.40;93.60;;;;;;5020529;28;20114;-80
2021/05/27 04:58:15;;;;;;;0.10;0.10;;;14.50;93.60;;;;;;5028554;28;20043;-79
2021/05/27 05:00:41;;;;;;;0.03;0.03;;;14.50;92.80;;;;;;5019485;28;20026;-79
2021/05/27 05:03:06;;;;;;;0.10;0.10;;;14.60;93.80;;;;;;5024710;28;20037;-78
2021/05/27 05:05:34;;;;;;;0.00;0.00;;;14.60;93.60;;;;;;5018367;28;20447;-78
2021/05/27 05:08:00;;;;;;;0.10;0.10;;;14.80;93.60;;;;;;5023246;28;20033;-79
2021/05/27 05:53:05;;;;;;;0.10;0.10;;;15.50;94.10;;;;;;6182795;22;1421665;-83
2021/05/27 05:55:31;;;;;;;0.10;0.10;;;15.80;94.90;;;;;;6195062;23;20013;-82
2021/05/27 05:57:57;;;;;;;0.10;0.10;;;15.80;94.70;;;;;;6221141;23;20438;-82
2021/05/27 06:00:23;;;;;;;0.10;0.10;;;15.80;96.00;;;;;;6221539;23;20004;-82
2021/05/27 06:02:49;;;;;;;0.10;0.10;;;16.00;94.50;;;;;;6194472;23;20383;-84
2021/05/27 06:05:14;;;;;;;0.10;0.10;;;16.00;94.90;;;;;;6195138;23;20423;-82
2021/05/27 06:07:40;;;;;;;0.10;0.10;;;16.00;94.60;;;;;;6194405;23;20016;-81
2021/05/27 06:10:06;;;;;;;0.10;0.10;;;16.10;96.50;;;;;;6221915;23;20039;-80
2021/05/27 06:12:32;;;;;;;0.00;0.00;;;16.20;96.90;;;;;;6220905;23;20076;-82
2021/05/27 06:14:57;;;;;;;0.20;0.20;;;16.20;96.20;;;;;;6221604;23;20070;-83
2021/05/27 06:17:23;;;;;;;0.10;0.10;;;16.40;95.00;;;;;;6221342;23;20050;-80
2021/05/27 06:19:49;;;;;;;0.10;0.10;;;16.50;96.50;;;;;;6221531;23;20007;-80
2021/05/27 06:22:15;;;;;;;0.10;0.10;;;16.60;93.90;;;;;;6194243;23;20103;-80
2021/05/27 06:24:43;;;;;;;0.10;0.10;;;16.60;94.80;;;;;;6221534;23;20022;-82
2021/05/27 06:27:09;;;;;;;0.10;0.10;;;16.70;94.20;;;;;;6220779;23;20018;-82
2021/05/27 06:29:35;;;;;;;0.10;0.10;;;16.70;93.60;;;;;;6221249;23;20368;-81
2021/05/27 06:32:00;;;;;;;0.10;0.10;;;16.80;92.90;;;;;;6221134;23;20454;-80
2021/05/27 06:34:26;;;;;;;0.10;0.10;;;16.90;92.20;;;;;;6221336;23;20003;-81
2021/05/27 06:36:52;;;;;;;0.10;0.10;;;16.80;93.00;;;;;;6194462;23;20095;-81
2021/05/27 06:39:17;;;;;;;0.10;0.10;;;16.90;92.00;;;;;;6221668;23;20331;-78
2021/05/27 06:41:43;;;;;;;0.08;0.08;;;17.10;92.80;;;;;;6221050;23;20012;-78
2021/05/27 06:44:09;;;;;;;0.10;0.10;;;17.10;92.10;;;;;;6221342;23;20324;-79
2021/05/27 06:46:34;;;;;;;0.10;0.10;;;17.20;93.10;;;;;;6221421;23;20000;-78
2021/05/27 06:49:05;;;;;;;0.10;0.10;;;17.30;93.50;;;;;;6221158;23;20381;-80
2021/05/27 06:51:31;;;;;;;0.10;0.10;;;17.40;91.90;;;;;;6223081;23;20016;-79
2021/05/27 06:53:59;;;;;;;0.10;0.10;;;17.40;91.80;;;;;;6217533;23;20012;-79
2021/05/27 06:56:25;;;;;;;0.10;0.10;;;17.50;92.60;;;;;;6244771;22;20375;-79
2021/05/27 06:58:51;;;;;;;0.10;0.10;;;17.60;91.70;;;;;;6244182;23;20074;-79
2021/05/27 07:01:16;;;;;;;0.30;0.30;;;17.70;92.10;;;;;;6244875;23;20012;-80
2021/05/27 07:03:42;;;;;;;0.10;0.10;;;17.80;91.30;;;;;;6244050;23;20003;-80
2021/05/27 07:06:08;;;;;;;0.10;0.10;;;17.80;87.20;;;;;;6245145;22;20006;-79
2021/05/27 07:08:36;;;;;;;0.30;0.30;;;17.90;87.50;;;;;;6217295;22;20004;-80
2021/05/27 07:11:01;;;;;;;1.10;1.10;;;18.00;90.20;;;;;;6244687;22;20004;-79
2021/05/27 07:13:27;;;;;;;0.10;0.10;;;18.10;89.80;;;;;;6243690;23;20335;-79
2021/05/27 07:15:53;;;;;;;0.55;0.47;;;18.40;90.20;;;;;;6244772;22;20000;-79
2021/05/27 07:18:18;;;;;;;4.15;1.05;;;18.50;87.60;;;;;;6243929;23;20000;-79
2021/05/27 07:20:44;;;;;;;1.08;0.73;;;18.60;84.00;;;;;;6218062;23;20014;-79
2021/05/27 07:23:10;;;;;;;0.30;0.30;;;18.70;82.60;;;;;;6243860;22;20067;-79
2021/05/27 07:25:36;;;;;;;0.10;0.10;;;18.70;80.80;;;;;;6244326;22;20100;-79
2021/05/27 07:28:02;;;;;;;2.00;1.08;;;18.70;84.70;;;;;;6243720;22;20243;-79
2021/05/27 07:30:28;;;;;;;0.40;0.40;;;18.80;85.10;;;;;;6217723;23;20035;-79
2021/05/27 07:32:56;;;;;;;0.20;0.20;;;18.80;83.50;;;;;;6243849;23;20007;-78
2021/05/27 07:35:22;;;;;;;;;;;18.90;82.00;;;;;;6245374;22;19996;-79
2021/05/27 07:37:48;;;;;;;1.75;0.85;;;18.90;84.10;;;;;;6244092;22;20005;-78
2021/05/27 07:40:14;;;;;;;0.47;0.47;;;18.90;86.70;;;;;;6244093;22;20427;-80
2021/05/27 07:42:40;;;;;;;0.10;0.10;;;19.00;87.00;;;;;;6243826;22;20015;-78
2021/05/27 07:45:06;;;;;;;0.60;0.60;;;19.10;84.20;;;;;;6217511;22;20227;-80
2021/05/27 07:47:34;;;;;;;0.10;0.10;;;19.10;84.50;;;;;;6243816;22;20083;-79
2021/05/27 07:50:01;;;;;;;10.88;1.17;;;19.10;83.70;;;;;;6244387;22;20000;-79
2021/05/27 07:52:27;;;;;;;;;;;19.30;85.70;;;;;;6244113;23;20015;-80
2021/05/27 07:54:53;;;;;;;2.25;0.68;;;19.30;84.80;;;;;;6244176;22;19899;-78
2021/05/27 07:57:20;;;;;;;1.40;0.70;;;19.40;82.80;;;;;;6216637;23;20026;-79
2021/05/27 07:59:45;;;;;;;0.20;0.20;;;19.30;82.30;;;;;;6244514;22;20004;-80
2021/05/27 08:02:11;;;;;;;0.30;0.30;;;19.40;82.60;;;;;;6243544;22;20385;-79
2021/05/27 08:04:39;;;;;;;0.65;0.65;;;19.50;86.00;;;;;;6244190;23;20075;-79
2021/05/27 08:07:05;;;;;;;0.10;0.10;;;19.60;84.40;;;;;;6217035;22;20012;-79
2021/05/27 08:09:30;;;;;;;0.30;0.30;;;19.70;85.50;;;;;;6244101;22;20122;-80
2021/05/27 08:11:56;;;;;;;2.53;1.65;;;19.80;78.50;;;;;;6243956;22;20008;-80
2021/05/27 08:14:22;;;;;;;0.30;0.30;;;19.80;81.60;;;;;;6244096;22;20071;-80
2021/05/27 08:16:47;;;;;;;4.30;1.38;;;19.70;78.20;;;;;;6243747;23;20074;-80
2021/05/27 08:19:13;;;;;;;11.18;0.95;;;19.70;79.60;;;;;;6244093;22;20001;-80
2021/05/27 08:21:39;;;;;;;8.02;0.60;;;19.60;80.10;;;;;;6216774;23;20051;-80
2021/05/27 08:24:05;;;;;;;0.75;0.35;;;19.60;76.70;;;;;;6244189;22;20031;-80
2021/05/27 08:26:31;;;;;;;0.40;0.40;;;19.60;76.30;;;;;;6244370;22;20035;-80
2021/05/27 08:28:57;;;;;;;1.00;0.20;;;19.60;78.70;;;;;;6243037;22;20305;-80
2021/05/27 08:31:22;;;;;;;0.43;0.43;;;19.70;83.90;;;;;;6244214;22;20079;-78
2021/05/27 08:33:49;;;;;;;0.90;0.43;;;19.60;78.80;;;;;;6243641;23;20331;-79
2021/05/27 08:36:16;;;;;;;0.63;0.63;;;19.70;82.00;;;;;;6244065;22;20058;-79
2021/05/27 08:38:42;;;;;;;5.47;1.65;;;19.70;85.70;;;;;;6243425;23;20047;-79
2021/05/27 08:41:11;;;;;;;0.30;0.30;;;19.70;82.90;;;;;;6244008;22;20004;-79
2021/05/27 08:43:37;;;;;;;0.30;0.30;;;19.80;82.80;;;;;;6243030;23;20004;-80
2021/05/27 08:46:05;;;;;;;0.70;0.70;;;19.80;83.70;;;;;;6243811;23;20000;-79
2021/05/27 08:48:31;;;;;;;9.25;1.52;;;19.90;84.50;;;;;;6216606;23;20019;-80
2021/05/27 08:50:59;;;;;;;9.83;0.93;;;19.80;82.90;;;;;;6244018;23;20042;-79
2021/05/27 08:53:25;;;;;;;0.10;0.10;;;19.80;78.10;;;;;;6243219;22;20012;-79
2021/05/27 08:55:51;;;;;;;0.45;0.45;;;20.00;82.60;;;;;;6243930;23;20000;-78
2021/05/27 08:58:17;;;;;;;2.70;0.80;;;20.20;82.90;;;;;;6242632;22;20000;-81
2021/05/27 09:00:43;;;;;;;0.20;0.20;;;20.30;74.20;;;;;;6243823;23;20000;-79
2021/05/27 09:03:10;;;;;;;0.10;0.10;;;20.50;71.70;;;;;;6243321;22;20011;-80
2021/05/27 09:05:37;;;;;;;;;;;20.70;75.30;;;;;;6244485;22;20006;-79
2021/05/27 09:08:23;;;;;;;0.20;0.20;;;20.80;74.60;;;;;;6242717;23;19910;-79
2021/05/27 09:10:51;;;;;;;0.30;0.22;;;20.70;72.70;;;;;;6190947;23;20029;-81
2021/05/27 09:13:20;;;;;;;3.45;1.48;;;20.60;72.00;;;;;;6242751;23;20457;-81
2021/05/27 09:15:49;;;;;;;0.40;0.40;;;20.60;72.00;;;;;;6243591;22;20343;-81
2021/05/27 09:18:34;;;;;;;0.75;0.47;;;20.50;73.50;;;;;;6243513;22;20003;-81
2021/05/27 09:21:00;;;;;;;1.85;0.28;;;20.40;70.50;;;;;;6243448;22;20035;-79
2021/05/27 09:23:27;;;;;;;0.20;0.20;;;20.50;73.20;;;;;;6243630;22;20000;-81
2021/05/27 09:26:00;;;;;;;0.20;0.20;;;20.50;66.90;;;;;;6243711;22;20004;-79
2021/05/27 09:28:29;;;;;;;0.32;0.32;;;20.50;68.20;;;;;;6242777;22;20677;-79
2021/05/27 09:31:07;;;;;;;0.10;0.10;;;20.70;68.90;;;;;;6216663;23;20387;-80
2021/05/27 09:33:35;;;;;;;0.10;0.10;;;20.80;69.40;;;;;;6242981;23;20466;-80
2021/05/27 09:36:10;;;;;;;0.77;0.47;;;21.00;67.60;;;;;;6243139;22;19996;-80
2021/05/27 09:38:40;;;;;;;0.85;0.38;;;21.10;65.50;;;;;;6243122;22;20082;-80
2021/05/27 09:41:20;;;;;;;0.30;0.30;;;20.90;65.70;;;;;;6243128;22;20031;-81
2021/05/27 09:43:50;;;;;;;2.05;0.80;;;21.10;70.40;;;;;;6216306;23;20488;-80
2021/05/27 09:46:17;;;;;;;0.10;0.10;;;21.10;60.80;;;;;;6216127;23;20032;-80
2021/05/27 09:48:44;;;;;;;0.28;0.28;;;21.10;65.20;;;;;;6243070;22;20123;-81
2021/05/27 09:51:10;;;;;;;;;;;21.20;63.60;;;;;;6243925;22;20190;-80
2021/05/27 09:53:36;;;;;;;3.95;0.82;;;21.30;68.20;;;;;;6216112;23;20228;-79
2021/05/27 09:56:05;;;;;;;0.25;0.20;;;21.30;64.40;;;;;;6243405;23;20003;-81
2021/05/27 09:58:31;;;;;;;0.30;0.30;;;21.30;64.00;;;;;;6242578;22;20618;-81
2021/05/27 10:00:57;;;;;;;0.20;0.20;;;21.40;61.20;;;;;;6243586;22;20423;-80
2021/05/27 10:03:33;;;;;;;0.22;0.22;;;21.10;62.50;;;;;;6242543;22;20036;-81
2021/05/27 10:06:09;;;;;;;0.35;0.35;;;20.90;59.30;;;;;;6216589;23;20300;-80
2021/05/27 10:08:51;;;;;;;1.10;0.95;;;21.10;64.30;;;;;;6242626;22;20010;-80
2021/05/27 10:11:19;;;;;;;0.20;0.20;;;21.20;64.30;;;;;;6243017;22;20004;-81
2021/05/27 10:13:45;;;;;;;0.30;0.30;;;21.20;65.50;;;;;;6215930;23;20026;-81
2021/05/27 10:16:18;;;;;;;0.10;0.10;;;21.20;63.60;;;;;;6216380;23;20019;-80
2021/05/27 10:18:46;;;;;;;0.47;0.47;;;21.10;70.20;;;;;;6215708;23;20293;-83
2021/05/27 10:21:12;;;;;;;5.57;0.75;;;21.10;69.60;;;;;;6243446;23;20012;-81
2021/05/27 10:23:39;;;;;;;0.60;0.60;;;21.20;73.70;;;;;;6215724;23;20026;-82
2021/05/27 10:26:05;;;;;;;0.30;0.30;;;21.10;74.90;;;;;;6243392;22;20000;-81
2021/05/27 10:28:33;;;;;;;1.10;0.65;;;21.10;75.90;;;;;;6243443;22;19996;-80
2021/05/27 10:31:00;;;;;;;0.30;0.30;;;21.10;75.00;;;;;;6245282;23;20004;-80
2021/05/27 10:33:26;;;;;;;;;;;21.00;74.10;;;;;;6245066;22;20007;-80
2021/05/27 10:35:51;;;;;;;0.50;0.38;;;21.10;73.70;;;;;;6245274;22;19900;-82
2021/05/27 10:38:41;;;;;;;0.70;0.55;;;21.10;71.20;;;;;;6217607;23;20054;-83
2021/05/27 10:41:15;;;;;;;0.10;0.10;;;21.00;68.10;;;;;;6244772;22;20008;-82
2021/05/27 10:44:02;;;;;;;1.70;0.75;;;21.30;70.10;;;;;;6244170;22;20007;-82
2021/05/27 10:46:30;;;;;;;0.13;0.13;;;21.30;67.30;;;;;;6245282;23;20032;-83
2021/05/27 10:48:56;;;;;;;0.70;0.65;;;21.40;65.60;;;;;;6244304;22;20000;-84
2021/05/27 10:51:42;;;;;;;2.75;0.52;;;21.50;64.30;;;;;;6245348;22;20454;-81
2021/05/27 10:54:13;;;;;;;3.70;1.33;;;21.50;62.00;;;;;;6244947;22;20431;-82
2021/05/27 10:56:43;;;;;;;1.00;0.70;;;21.50;60.40;;;;;;6217729;23;20091;-81
2021/05/27 10:59:10;;;;;;;0.20;0.20;;;21.40;58.40;;;;;;6244797;22;19996;-82
2021/05/27 11:01:36;;;;;;;7.75;0.98;;;21.30;57.10;;;;;;6217590;23;20012;-84
2021/05/27 11:04:05;;;;;;;0.77;0.57;;;21.30;60.30;;;;;;6217490;23;20136;-81
2021/05/27 11:06:41;;;;;;;1.13;0.98;;;21.30;61.70;;;;;;6244653;23;20061;-82
2021/05/27 11:09:16;;;;;;;1.77;0.80;;;21.30;67.70;;;;;;6244601;22;20043;-82
2021/05/27 11:11:47;;;;;;;15.20;0.70;;;21.30;62.10;;;;;;6244224;22;20367;-83
2021/05/27 11:14:40;;;;;;;0.60;0.60;;;21.40;67.00;;;;;;6244573;22;19997;-83
2021/05/27 11:19:48;;;;;;;1.00;0.28;;;21.20;72.60;;;;;;6245014;23;20455;-82
2021/05/27 11:27:52;;;;;;;0.38;0.20;;;21.50;69.50;;;;;;6243750;23;20085;-84
2021/05/27 11:30:45;;;;;;;1.02;0.30;;;21.70;65.90;;;;;;6217723;23;20316;-81
2021/05/27 11:33:22;;;;;;;0.30;0.30;;;21.80;66.50;;;;;;6244261;22;20008;-80
2021/05/27 11:35:49;;;;;;;;;;;21.90;66.90;;;;;;6244865;22;20027;-81
2021/05/27 11:38:17;;;;;;;1.80;1.20;;;21.90;64.70;;;;;;6217185;23;19899;-83
2021/05/27 11:40:47;;;;;;;0.30;0.30;;;21.80;64.00;;;;;;6244570;22;20341;-82
2021/05/27 11:43:15;;;;;;;2.67;1.27;;;21.90;65.10;;;;;;6243637;22;20007;-83
2021/05/27 11:45:44;;;;;;;1.40;0.57;;;21.90;65.50;;;;;;6244392;22;20024;-81
2021/05/27 11:50:44;;;;;;;0.65;0.65;;;22.10;68.20;;;;;;6244021;22;20008;-80
2021/05/27 11:53:11;;;;;;;0.30;0.30;;;21.90;69.20;;;;;;6243919;23;20020;-83
2021/05/27 11:55:37;;;;;;;0.70;0.70;;;22.00;71.60;;;;;;6244513;22;20073;-80
2021/05/27 11:58:04;;;;;;;1.80;1.02;;;22.00;71.90;;;;;;6243426;23;20007;-80
2021/05/27 12:00:31;;;;;;;0.93;0.88;;;21.90;74.00;;;;;;6244402;22;20435;-82
2021/05/27 12:03:00;;;;;;;0.50;0.50;;;22.80;73.10;;;;;;6243334;22;20012;-81
2021/05/27 12:05:31;;;;;;;0.60;0.60;;;26.30;65.90;;;;;;6217703;23;20400;-79
2021/05/27 12:08:03;;;;;;;0.43;0.43;;;29.40;55.70;;;;;;6241270;22;20008;-80
2021/05/27 12:10:38;;;;;;;3.55;0.55;;;31.50;51.10;;;;;;6217334;23;20000;-80
2021/05/27 12:13:15;;;;;;;0.68;0.68;;;31.80;49.60;;;;;;6216207;23;20500;-82
2021/05/27 12:15:45;;;;;;;1.10;1.00;;;34.10;44.10;;;;;;6244007;23;20050;-81
2021/05/27 12:18:16;;;;;;;0.57;0.50;;;34.20;43.20;;;;;;6241268;22;20027;-81
2021/05/27 12:20:45;;;;;;;0.40;0.40;;;34.90;39.00;;;;;;6241189;23;20011;-81
2021/05/27 12:23:13;;;;;;;0.88;0.75;;;35.00;39.60;;;;;;6213775;23;20491;-83
2021/05/27 12:25:50;;;;;;;0.40;0.40;;;34.60;38.90;;;;;;6241340;22;20237;-84
2021/05/27 12:28:17;;;;;;;1.33;1.23;;;34.90;40.10;;;;;;6240315;22;20362;-84
2021/05/27 12:30:55;;;;;;;1.17;0.50;;;36.80;35.50;;;;;;6240516;22;20014;-82
2021/05/27 12:33:34;;;;;;;0.30;0.30;;;37.70;34.80;;;;;;6241212;22;20030;-82
2021/05/27 12:36:08;;;;;;;0.52;0.50;;;39.30;32.60;;;;;;6241034;22;20008;-84
2021/05/27 12:38:35;;;;;;;0.85;0.85;;;40.80;30.00;;;;;;6241094;23;19996;-84
2021/05/27 12:41:04;;;;;;;2.80;2.60;;;39.90;30.50;;;;;;6214108;23;20159;-87
2021/05/27 12:43:36;;;;;;;1.00;0.80;;;39.50;31.40;;;;;;6212739;23;20231;-85
2021/05/27 12:46:05;;;;;;;0.88;0.85;;;38.60;31.10;;;;;;6214792;22;20011;-83
2021/05/27 12:48:33;;;;;;;1.08;0.70;;;37.80;32.10;;;;;;6214770;22;20079;-83
2021/05/27 12:51:03;;;;;;;0.50;0.50;;;37.90;32.60;;;;;;6240847;22;20015;-84
2021/05/27 12:53:29;;;;;;;2.55;0.82;;;37.80;32.40;;;;;;6240681;23;20048;-83
2021/05/27 12:55:57;;;;;;;2.43;0.87;;;37.50;33.20;;;;;;6213615;23;20081;-85
2021/05/27 12:58:35;;;;;;;0.50;0.40;;;36.70;34.70;;;;;;6239819;22;19996;-85
2021/05/27 13:01:01;;;;;;;0.43;0.40;;;38.70;32.30;;;;;;6242543;22;20004;-82
2021/05/27 13:03:29;;;;;;;0.95;0.90;;;39.10;31.00;;;;;;6217478;22;20008;-84
2021/05/27 13:06:09;;;;;;;1.15;0.68;;;38.20;31.10;;;;;;6213790;23;20087;-81
2021/05/27 13:08:36;;;;;;;2.63;1.10;;;36.90;34.20;;;;;;6214850;23;20318;-82
2021/05/27 13:11:20;;;;;;;0.20;0.20;;;36.20;33.90;;;;;;6241011;23;20062;-82
2021/05/27 13:13:46;;;;;;;0.93;0.55;;;35.20;37.00;;;;;;6240206;23;20508;-84
2021/05/27 13:16:34;;;;;;;5.40;0.20;;;34.20;37.40;;;;;;6213754;22;20004;-84
2021/05/27 13:19:00;;;;;;;2.00;0.98;;;33.20;37.80;;;;;;6214143;23;20259;-81
2021/05/27 13:21:40;;;;;;;1.45;0.40;;;31.70;41.70;;;;;;6242022;23;20000;-82
2021/05/27 13:24:12;;;;;;;1.98;0.77;;;31.50;43.80;;;;;;6243128;22;20012;-85
2021/05/27 13:26:39;;;;;;;3.80;1.55;;;31.00;44.10;;;;;;6215068;23;20012;-81
2021/05/27 13:29:05;;;;;;;;;;;32.50;41.90;;;;;;6215052;23;20439;-83
2021/05/27 13:31:34;;;;;;;7.72;1.85;;;34.90;39.30;;;;;;6241978;23;19911;-82
2021/05/27 13:34:00;;;;;;;1.55;0.93;;;35.20;37.40;;;;;;6240785;22;20191;-83
2021/05/27 13:36:26;;;;;;;0.95;0.95;;;36.20;36.30;;;;;;6241330;22;20000;-82
2021/05/27 13:38:52;;;;;;;0.83;0.70;;;35.60;36.10;;;;;;6241207;22;20010;-82
2021/05/27 13:41:18;;;;;;;0.57;0.57;;;34.60;37.70;;;;;;6241558;22;20107;-82
2021/05/27 13:43:43;;;;;;;0.73;0.73;;;33.80;39.80;;;;;;6241154;22;20053;-83
2021/05/27 13:46:09;;;;;;;0.40;0.40;;;32.20;41.30;;;;;;6242613;22;20004;-81
2021/05/27 13:48:35;;;;;;;1.13;0.50;;;31.20;44.30;;;;;;6240005;22;20000;-80
2021/05/27 13:51:07;;;;;;;3.50;1.17;;;30.10;44.80;;;;;;6241030;22;20012;-78
2021/05/27 13:53:33;;;;;;;0.25;0.20;;;28.40;48.20;;;;;;6239246;22;20044;-81
2021/05/27 13:56:01;;;;;;;0.20;0.20;;;27.20;50.10;;;;;;6240007;22;20008;-80
2021/05/27 13:58:27;;;;;;;0.13;0.13;;;26.60;52.10;;;;;;6239192;22;20003;-81
2021/05/27 14:00:54;;;;;;;12.63;1.27;;;26.90;53.10;;;;;;6240303;22;20401;-80